Home   Weather   Spain   Valencia   Past weeks
Flag for Spain

Past Weather in Valencia, Valencia, Spain — Yesterday and Last 2 Weeks

Currently: 57 °F. Clear. (Weather station: Valencia / Aeropuerto, Spain). See more current weather

Past Weather in Valencia — Graph

°F

Valencia Temperature Yesterday

Maximum temperature yesterday: 68 °F (at 12:30 pm)
Minimum temperature yesterday: 45 °F (at 4:30 am)
Average temperature yesterday: 54 °F

High & Low Weather Summary for the Past Weeks

 TemperatureHumidityPressure
High77 °F (Feb 13, 3:30 pm)100% (Feb 16, 4:00 am)30.57 "Hg (Feb 16, 4:00 am)
Low39 °F (Feb 21, 5:30 am)21% (Feb 8, 6:30 pm)29.18 "Hg (Feb 10, 5:00 am)
Average57 °F63%30.06 "Hg
* Reported Feb 6 8:00 pm — Feb 21 8:30 pm, Valencia. Weather by CustomWeather, © 2024

Note: Actual official high and low records may vary slightly from our data, if they occured in-between our weather recording intervals... More about our weather records

Valencia Weather History for the Previous 24 Hours

Scroll right to see more
 ConditionsComfort  
Time TempWeatherWind HumidityBarometerVisibility
8:30 pm
Wed, Feb 21
55 °FClear.5 mph67%30.18 "Hg10 mi
8:00 pm57 °FClear.2 mph67%30.18 "Hg10 mi
7:00 pm59 °FPassing clouds.6 mph68%30.18 "HgN/A
6:30 pm59 °FPassing clouds.6 mph51%30.18 "HgN/A
6:00 pm59 °FPassing clouds.6 mph51%30.15 "HgN/A
5:30 pm61 °FPassing clouds.8 mph55%30.18 "HgN/A
5:00 pm63 °FPassing clouds.8 mph49%30.18 "HgN/A
4:30 pm61 °FPassing clouds.9 mph52%30.18 "HgN/A
4:00 pm63 °FPassing clouds.10 mph52%30.18 "HgN/A
3:30 pm64 °FPassing clouds.10 mph56%30.18 "HgN/A
3:00 pm66 °FPassing clouds.8 mph52%30.18 "HgN/A
2:30 pm66 °FPassing clouds.6 mph46%30.21 "HgN/A
2:00 pm66 °FPassing clouds.6 mph46%30.21 "HgN/A
1:30 pm66 °FPassing clouds.6 mph40%30.24 "HgN/A
1:00 pm64 °FPassing clouds.5 mph40%30.27 "HgN/A
12:30 pm63 °FPassing clouds.3 mph39%30.30 "HgN/A
12:00 pm63 °FSunny.1 mph37%30.30 "Hg10 mi
11:30 am59 °FSunny.2 mph45%30.30 "Hg10 mi
11:00 am59 °FSunny.1 mph45%30.30 "Hg10 mi
10:30 am55 °FPassing clouds.3 mph47%30.33 "HgN/A
10:00 am54 °FSunny.2 mph54%30.33 "Hg10 mi
9:30 am50 °FSunny.2 mph67%30.33 "Hg10 mi
9:00 am43 °FSunny.2 mph87%30.33 "Hg10 mi
8:30 am41 °FSunny.2 mph87%30.33 "Hg10 mi
8:00 am39 °FSunny.1 mph87%30.30 "Hg10 mi
7:30 am39 °FClear.1 mph87%30.30 "Hg10 mi
7:00 am39 °FClear.5 mph87%30.33 "Hg10 mi
6:30 am39 °FClear.2 mph93%30.33 "Hg10 mi
6:00 am39 °FClear.5 mph93%30.33 "Hg10 mi
5:30 am39 °FClear.3 mph93%30.33 "Hg10 mi
5:00 am41 °FClear.3 mph87%30.33 "Hg10 mi
4:30 am41 °FClear.2 mph93%30.33 "Hg10 mi
4:00 am45 °FClear.1 mph87%30.33 "Hg10 mi
3:30 am45 °FClear.2 mph87%30.33 "Hg10 mi
3:00 am43 °FClear.5 mph87%30.36 "Hg10 mi
2:30 am45 °FClear.1 mph87%30.36 "Hg10 mi
2:00 am45 °FClear.2 mph93%30.36 "Hg10 mi
12:30 am46 °FClear.3 mph87%30.39 "Hg10 mi
12:00 am48 °FClear.6 mph87%30.39 "Hg10 mi
11:30 pm
Tue, Feb 20
48 °FClear.7 mph87%30.39 "Hg10 mi
11:00 pm48 °FClear.5 mph87%30.39 "Hg10 mi
10:30 pm50 °FClear.5 mph88%30.39 "Hg10 mi
10:00 pm50 °FClear.5 mph82%30.36 "Hg10 mi
Weather by CustomWeather, © 2024

See weather overview